Météo Nord-Pas-de-Calais   La météo au plus près de chez vous

Station météorologique

Observations météo à Embrun (05046)

05046001 873 m Dernier relevé à 11:24
24.8°C
Humidité 46 % Vent 14 km/h

Journée consultée

Dimanche 6 Septembre 2026

Synthèse de la journée

Périodes de référence en UTC

Température maximale

26.1°C

à 11:12

06h 06h

Température minimale

15.9°C

à 04:30

18h 18h

Rafale maximale

30 km/h

à 05:54

00h 00h

Précipitations

0 mm

Cumul quotidien

06h 06h

Ensoleillement

2h 57 mins

Durée quotidienne

00h 00h

Graphiques de la journée

Heure locale Réduire

Données détaillées

Relevés météo

Pas de 6 minutes Afficher les relevés infra-horaires
Relevés météo détaillés à Embrun pour le Dimanche 6 Septembre 2026
Heure Température °C Point de rosée °C Humidité % Vent moyen (raf.), km/h Précipitations mm Température à 10 cm °C Température à 20 cm °C Température à 50 cm °C Température à 100 cm °C Hauteur neige cm Ensoleillement min Rayonnement global W/m²
11:24 24.8 °C 11.4 °C 43 % 12 km/h (18 km/h) 0 mm0 mm 20.1 °C 20.9 °C 20.4 °C 19.4 °C 0 cm 6 min 206.5 W/m²
11:18 25.1 °C 11.3 °C 42 % 9 km/h (16 km/h) 0 mm0 mm 20.1 °C 20.9 °C 20.4 °C 19.4 °C 0 cm 6 min 204.3 W/m²
11:12 26.1 °C 12.9 °C 44 % 6 km/h (12 km/h) 0 mm0 mm 20.1 °C 20.9 °C 20.4 °C 19.4 °C 0 cm 6 min 205.2 W/m²
11:06 26 °C 11.4 °C 40 % 7 km/h (12 km/h) 0 mm0 mm 20.1 °C 21 °C 20.4 °C 19.4 °C 0 cm 6 min 200.8 W/m²
11:00 25.6 °C 10.6 °C 39 % 8 km/h (12 km/h) 0 mm0 mm 20.1 °C 21 °C 20.4 °C 19.4 °C 0 cm 6 min 197.3 W/m²
10:54 25.2 °C 11.4 °C 42 % 8 km/h (13 km/h) 0 mm0 mm 20.1 °C 21 °C 20.4 °C 19.4 °C 0 cm 6 min 193.2 W/m²
10:48 24.9 °C 11.1 °C 42 % 9 km/h (17 km/h) 0 mm0 mm 20.1 °C 21 °C 20.4 °C 19.4 °C 0 cm 6 min 185.7 W/m²
10:42 24.7 °C 11.6 °C 44 % 10 km/h (17 km/h) 0 mm0 mm 20.1 °C 21 °C 20.4 °C 19.4 °C 0 cm 6 min 185 W/m²
10:36 24.3 °C 11.3 °C 44 % 12 km/h (20 km/h) 0 mm0 mm 20.1 °C 21.1 °C 20.4 °C 19.4 °C 0 cm 6 min 182.4 W/m²
10:30 23.7 °C 10.7 °C 44 % 14 km/h (20 km/h) 0 mm0 mm 20.1 °C 21.1 °C 20.4 °C 19.4 °C 0 cm 6 min 168.4 W/m²
10:24 23.6 °C 11.3 °C 46 % 14 km/h (21 km/h) 0 mm0 mm 20.1 °C 21.1 °C 20.4 °C 19.4 °C 0 cm 6 min 172.1 W/m²
10:18 23.1 °C 10.5 °C 45 % 12 km/h (21 km/h) 0 mm0 mm 20.1 °C 21.1 °C 20.5 °C 19.4 °C 0 cm 6 min 165.9 W/m²
10:12 22.8 °C 11.5 °C 49 % 9 km/h (16 km/h) 0 mm0 mm 20.1 °C 21.1 °C 20.5 °C 19.4 °C 0 cm 6 min 159.4 W/m²
10:06 23 °C 11.4 °C 48 % 8 km/h (14 km/h) 0 mm0 mm 20.2 °C 21.1 °C 20.5 °C 19.4 °C 0 cm 6 min 154.1 W/m²
10:00 22.5 °C 11.2 °C 49 % 8 km/h (14 km/h) 0 mm0 mm 20.2 °C 21.1 °C 20.5 °C 19.4 °C 0 cm 6 min 148.6 W/m²
09:54 21.9 °C 11.3 °C 51 % 8 km/h (12 km/h) 0 mm0 mm 20.2 °C 21.2 °C 20.5 °C 19.4 °C 0 cm 6 min 142.8 W/m²
09:48 21.7 °C 11.1 °C 51 % 8 km/h (13 km/h) 0 mm0 mm 20.2 °C 21.2 °C 20.5 °C 19.4 °C 0 cm 6 min 137.1 W/m²
09:42 21.4 °C 11.1 °C 52 % 8 km/h (13 km/h) 0 mm0 mm 20.2 °C 21.2 °C 20.5 °C 19.4 °C 0 cm 6 min 131.5 W/m²
09:36 20.9 °C 11.8 °C 56 % 9 km/h (16 km/h) 0 mm0 mm 20.3 °C 21.2 °C 20.5 °C 19.4 °C 0 cm 6 min 125.6 W/m²
09:30 20.6 °C 11.2 °C 55 % 10 km/h (16 km/h) 0 mm0 mm 20.3 °C 21.2 °C 20.5 °C 19.4 °C 0 cm 6 min 120.2 W/m²
09:24 19.9 °C 10.9 °C 56 % 12 km/h (19 km/h) 0 mm0 mm 20.3 °C 21.3 °C 20.5 °C 19.4 °C 0 cm 6 min 114.6 W/m²
09:18 19.7 °C 10.4 °C 55 % 13 km/h (22 km/h) 0 mm0 mm 20.3 °C 21.3 °C 20.5 °C 19.4 °C 0 cm 6 min 109 W/m²
09:12 19.6 °C 10.6 °C 56 % 13 km/h (22 km/h) 0 mm0 mm 20.4 °C 21.3 °C 20.5 °C 19.4 °C 0 cm 6 min 103.8 W/m²
09:06 19.5 °C 10.5 °C 56 % 13 km/h (22 km/h) 0 mm0 mm 20.4 °C 21.3 °C 20.5 °C 19.4 °C 0 cm 6 min 98.4 W/m²
09:00 19.5 °C 10.8 °C 57 % 13 km/h (22 km/h) 0 mm0 mm 20.4 °C 21.3 °C 20.5 °C 19.4 °C 0 cm 6 min 93.2 W/m²
08:54 18.7 °C 10.8 °C 60 % 13 km/h (23 km/h) 0 mm0 mm 20.4 °C 21.3 °C 20.4 °C 19.4 °C 0 cm 6 min 87.4 W/m²
08:48 17.6 °C 10.5 °C 63 % 14 km/h (23 km/h) 0 mm0 mm 20.5 °C 21.4 °C 20.5 °C 19.4 °C 0 cm 6 min 81.2 W/m²
08:42 17.4 °C 10.3 °C 63 % 11 km/h (18 km/h) 0 mm0 mm 20.5 °C 21.4 °C 20.5 °C 19.4 °C 0 cm 6 min 75.4 W/m²
08:36 17.2 °C 10.3 °C 64 % 11 km/h (16 km/h) 0 mm0 mm 20.5 °C 21.4 °C 20.4 °C 19.4 °C 0 cm 6 min 69.7 W/m²
08:30 16.8 °C 9.7 °C 63 % 13 km/h (17 km/h) 0 mm0 mm 20.5 °C 21.4 °C 20.4 °C 19.4 °C 0 cm 3 min 41.5 W/m²
08:24 16.2 °C 9.6 °C 65 % 12 km/h (18 km/h) 0 mm0 mm 20.5 °C 21.4 °C 20.5 °C 19.4 °C 0 cm 0 min 8.8 W/m²
08:18 16.2 °C 9.6 °C 65 % 11 km/h (18 km/h) 0 mm0 mm 20.6 °C 21.5 °C 20.5 °C 19.4 °C 0 cm 0 min 8.1 W/m²
08:12 16.3 °C 9.7 °C 65 % 9 km/h (16 km/h) 0 mm0 mm 20.6 °C 21.5 °C 20.4 °C 19.4 °C 0 cm 0 min 7.3 W/m²
08:06 16.8 °C 9.9 °C 64 % 8 km/h (13 km/h) 0 mm0 mm 20.6 °C 21.5 °C 20.5 °C 19.4 °C 0 cm 0 min 7.1 W/m²
08:00 16.9 °C 9.6 °C 62 % 9 km/h (13 km/h) 0 mm0 mm 20.7 °C 21.5 °C 20.5 °C 19.4 °C 0 cm 0 min 6.5 W/m²
07:54 16.5 °C 9.4 °C 63 % 6 km/h (12 km/h) 0 mm0 mm 20.7 °C 21.5 °C 20.5 °C 19.4 °C 0 cm 0 min 5.6 W/m²
07:48 16.5 °C 9.7 °C 64 % 4 km/h (7 km/h) 0 mm0 mm 20.7 °C 21.5 °C 20.4 °C 19.4 °C 0 cm 0 min 5 W/m²
07:42 16.6 °C 9.5 °C 63 % 3 km/h (10 km/h) 0 mm0 mm 20.7 °C 21.5 °C 20.4 °C 19.4 °C 0 cm 0 min 4.2 W/m²
07:36 17.2 °C 9.9 °C 62 % 5 km/h (10 km/h) 0 mm0 mm 20.8 °C 21.6 °C 20.5 °C 19.4 °C 0 cm 0 min 3.5 W/m²
07:30 17.1 °C 9.8 °C 62 % 6 km/h (11 km/h) 0 mm0 mm 20.8 °C 21.6 °C 20.4 °C 19.4 °C 0 cm 0 min 0 W/m²
07:24 17.2 °C 9.9 °C 62 % 9 km/h (14 km/h) 0 mm0 mm 20.8 °C 21.6 °C 20.4 °C 19.4 °C 0 cm 0 min 0 W/m²
07:18 17.1 °C 9.3 °C 60 % 7 km/h (14 km/h) 0 mm0 mm 20.8 °C 21.6 °C 20.5 °C 19.4 °C 0 cm 0 min 0 W/m²
07:12 17.8 °C 8.9 °C 56 % 4 km/h (10 km/h) 0 mm0 mm 20.9 °C 21.6 °C 20.5 °C 19.4 °C 0 cm 0 min 0 W/m²
07:06 18 °C 8.8 °C 55 % 8 km/h (22 km/h) 0 mm0 mm 20.9 °C 21.7 °C 20.4 °C 19.4 °C 0 cm 0 min 0 W/m²
07:00 18.5 °C 8.7 °C 53 % 15 km/h (27 km/h) 0 mm0 mm 20.9 °C 21.7 °C 20.4 °C 19.4 °C 0 cm 0 min 0 W/m²
06:54 18.5 °C 9 °C 54 % 12 km/h (27 km/h) 0 mm0 mm 21 °C 21.7 °C 20.4 °C 19.4 °C 0 cm 0 min 0 W/m²
06:48 17.3 °C 8.7 °C 57 % 9 km/h (21 km/h) 0 mm0 mm 21 °C 21.7 °C 20.4 °C 19.4 °C 0 cm 0 min 0 W/m²
06:42 17.7 °C 8.8 °C 56 % 13 km/h (25 km/h) 0 mm0 mm 21 °C 21.7 °C 20.4 °C 19.4 °C 0 cm 0 min 0 W/m²
06:36 17.9 °C 9 °C 56 % 13 km/h (25 km/h) 0 mm0 mm 21.1 °C 21.7 °C 20.4 °C 19.4 °C 0 cm 0 min 0 W/m²
06:30 17.9 °C 9 °C 56 % 14 km/h (20 km/h) 0 mm0 mm 21.1 °C 21.8 °C 20.4 °C 19.4 °C 0 cm 0 min 0 W/m²
06:24 17.9 °C 9 °C 56 % 15 km/h (25 km/h) 0 mm0 mm 21.1 °C 21.8 °C 20.4 °C 19.4 °C 0 cm 0 min 0 W/m²
06:18 17.4 °C 9 °C 58 % 15 km/h (25 km/h) 0 mm0 mm 21.1 °C 21.8 °C 20.4 °C 19.4 °C 0 cm 0 min 0 W/m²
06:12 17.4 °C 9 °C 58 % 13 km/h (23 km/h) 0 mm0 mm 21.2 °C 21.8 °C 20.4 °C 19.4 °C 0 cm 0 min 0 W/m²
06:06 17.6 °C 9 °C 57 % 13 km/h (20 km/h) 0 mm0 mm 21.2 °C 21.8 °C 20.4 °C 19.4 °C 0 cm 0 min 0 W/m²
06:00 17.9 °C 9 °C 56 % 14 km/h (23 km/h) 0 mm0 mm 21.2 °C 21.9 °C 20.4 °C 19.4 °C 0 cm 0 min 0 W/m²
05:54 18.1 °C 9.2 °C 56 % 17 km/h (30 km/h) 0 mm0 mm 21.3 °C 21.9 °C 20.4 °C 19.4 °C 0 cm 0 min 0 W/m²
05:48 18 °C 9.1 °C 56 % 17 km/h (27 km/h) 0 mm0 mm 21.3 °C 21.9 °C 20.4 °C 19.4 °C 0 cm 0 min 0 W/m²
05:42 17.8 °C 9.2 °C 57 % 18 km/h (30 km/h) 0 mm0 mm 21.3 °C 21.9 °C 20.4 °C 19.4 °C 0 cm 0 min 0 W/m²
05:36 17.7 °C 9.3 °C 58 % 17 km/h (30 km/h) 0 mm0 mm 21.4 °C 21.9 °C 20.4 °C 19.4 °C 0 cm 0 min 0 W/m²
05:30 16.6 °C 9.3 °C 62 % 13 km/h (19 km/h) 0 mm0 mm 21.4 °C 22 °C 20.4 °C 19.4 °C 0 cm 0 min 0 W/m²
05:24 16.8 °C 9.2 °C 61 % 12 km/h (21 km/h) 0 mm0 mm 21.4 °C 22 °C 20.4 °C 19.4 °C 0 cm 0 min 0 W/m²
05:18 16.7 °C 9.4 °C 62 % 11 km/h (19 km/h) 0 mm0 mm 21.5 °C 22 °C 20.4 °C 19.4 °C 0 cm 0 min 0 W/m²
05:12 16.6 °C 9.5 °C 63 % 11 km/h (17 km/h) 0 mm0 mm 21.5 °C 22 °C 20.4 °C 19.4 °C 0 cm 0 min 0 W/m²
05:06 16.6 °C 9.5 °C 63 % 11 km/h (17 km/h) 0 mm0 mm 21.5 °C 22 °C 20.4 °C 19.4 °C 0 cm 0 min 0 W/m²
05:00 16.4 °C 9.3 °C 63 % 10 km/h (16 km/h) 0 mm0 mm 21.6 °C 22 °C 20.4 °C 19.4 °C 0 cm 0 min 0 W/m²
04:54 16.3 °C 9.7 °C 65 % 9 km/h (16 km/h) 0 mm0 mm 21.6 °C 22.1 °C 20.4 °C 19.4 °C 0 cm 0 min 0 W/m²
04:48 16.1 °C 9.5 °C 65 % 10 km/h (16 km/h) 0 mm0 mm 21.6 °C 22.1 °C 20.4 °C 19.4 °C 0 cm 0 min 0 W/m²
04:42 16.1 °C 9.7 °C 66 % 11 km/h (15 km/h) 0 mm0 mm 21.7 °C 22.1 °C 20.4 °C 19.4 °C 0 cm 0 min 0 W/m²
04:36 16.1 °C 9.7 °C 66 % 12 km/h (17 km/h) 0 mm0 mm 21.7 °C 22.1 °C 20.4 °C 19.4 °C 0 cm 0 min 0 W/m²
04:30 15.9 °C 9.8 °C 67 % 11 km/h (17 km/h) 0 mm0 mm 21.7 °C 22.1 °C 20.4 °C 19.4 °C 0 cm 0 min 0 W/m²
04:24 16.1 °C 9.7 °C 66 % 11 km/h (17 km/h) 0 mm0 mm 21.8 °C 22.1 °C 20.4 °C 19.4 °C 0 cm 0 min 0 W/m²
04:18 16.3 °C 9.9 °C 66 % 11 km/h (16 km/h) 0 mm0 mm 21.8 °C 22.2 °C 20.4 °C 19.4 °C 0 cm 0 min 0 W/m²
04:12 16.5 °C 9.9 °C 65 % 12 km/h (16 km/h) 0 mm0 mm 21.8 °C 22.2 °C 20.4 °C 19.4 °C 0 cm 0 min 0 W/m²
04:06 16.6 °C 9.8 °C 64 % 12 km/h (17 km/h) 0 mm0 mm 21.9 °C 22.2 °C 20.4 °C 19.4 °C 0 cm 0 min 0 W/m²
04:00 16.7 °C 9.9 °C 64 % 13 km/h (18 km/h) 0 mm0 mm 21.9 °C 22.2 °C 20.4 °C 19.4 °C 0 cm 0 min 0 W/m²
03:54 16.6 °C 10 °C 65 % 10 km/h (18 km/h) 0 mm0 mm 21.9 °C 22.2 °C 20.4 °C 19.4 °C 0 cm 0 min 0 W/m²
03:48 16.4 °C 9.8 °C 65 % 8 km/h (14 km/h) 0 mm0 mm 22 °C 22.2 °C 20.4 °C 19.4 °C 0 cm 0 min 0 W/m²
03:42 16.7 °C 9.9 °C 64 % 8 km/h (14 km/h) 0 mm0 mm 22 °C 22.2 °C 20.4 °C 19.4 °C 0 cm 0 min 0 W/m²
03:36 16.7 °C 9.9 °C 64 % 6 km/h (11 km/h) 0 mm0 mm 22 °C 22.3 °C 20.4 °C 19.4 °C 0 cm 0 min 0 W/m²
03:30 16.5 °C 9.7 °C 64 % 5 km/h (9 km/h) 0 mm0 mm 22.1 °C 22.3 °C 20.4 °C 19.4 °C 0 cm 0 min 0 W/m²
03:24 16.7 °C 9.9 °C 64 % 4 km/h (8 km/h) 0 mm0 mm 22.1 °C 22.3 °C 20.4 °C 19.4 °C 0 cm 0 min 0 W/m²
03:18 16.5 °C 9.7 °C 64 % 3 km/h (6 km/h) 0 mm0 mm 22.1 °C 22.3 °C 20.3 °C 19.4 °C 0 cm 0 min 0 W/m²
03:12 16.4 °C 9.8 °C 65 % 2 km/h (5 km/h) 0 mm0 mm 22.2 °C 22.3 °C 20.4 °C 19.4 °C 0 cm 0 min 0 W/m²
03:06 16.6 °C 9.8 °C 64 % 3 km/h (5 km/h) 0 mm0 mm 22.2 °C 22.3 °C 20.3 °C 19.4 °C 0 cm 0 min 0 W/m²
03:00 16.7 °C 10.1 °C 65 % 3 km/h (5 km/h) 0 mm0 mm 22.2 °C 22.4 °C 20.4 °C 19.4 °C 0 cm 0 min 0 W/m²
02:54 16.8 °C 9.7 °C 63 % 3 km/h (5 km/h) 0 mm0 mm 22.3 °C 22.4 °C 20.3 °C 19.4 °C 0 cm 0 min 0 W/m²
02:48 16.9 °C 10 °C 64 % 3 km/h (5 km/h) 0 mm0 mm 22.3 °C 22.4 °C 20.3 °C 19.4 °C 0 cm 0 min 0 W/m²
02:42 17 °C 10.4 °C 65 % 3 km/h (6 km/h) 0 mm0 mm 22.3 °C 22.4 °C 20.3 °C 19.4 °C 0 cm 0 min 0 W/m²
02:36 17 °C 10.6 °C 66 % 3 km/h (6 km/h) 0 mm0 mm 22.4 °C 22.4 °C 20.3 °C 19.4 °C 0 cm 0 min 0 W/m²
02:30 16.9 °C 10.3 °C 65 % 2 km/h (5 km/h) 0 mm0 mm 22.4 °C 22.4 °C 20.3 °C 19.4 °C 0 cm 0 min 0 W/m²
02:24 17.3 °C 10.4 °C 64 % 3 km/h (6 km/h) 0 mm0 mm 22.4 °C 22.4 °C 20.3 °C 19.4 °C 0 cm 0 min 0 W/m²
02:18 17.6 °C 10.7 °C 64 % 4 km/h (8 km/h) 0 mm0 mm 22.5 °C 22.4 °C 20.3 °C 19.4 °C 0 cm 0 min 0 W/m²
02:12 18.4 °C 10.2 °C 59 % 8 km/h (17 km/h) 0 mm0 mm 22.5 °C 22.5 °C 20.3 °C 19.4 °C 0 cm 0 min 0 W/m²
02:06 18.3 °C 10.1 °C 59 % 8 km/h (17 km/h) 0 mm0 mm 22.5 °C 22.5 °C 20.3 °C 19.4 °C 0 cm 0 min 0 W/m²
02:00 18 °C 10.1 °C 60 % 4 km/h (14 km/h) 0 mm0 mm 22.6 °C 22.5 °C 20.3 °C 19.4 °C 0 cm 0 min 0 W/m²
01:54 19.1 °C 9.8 °C 55 % 8 km/h (15 km/h) 0 mm0 mm 22.6 °C 22.5 °C 20.3 °C 19.4 °C 0 cm 0 min 0 W/m²
01:48 19.1 °C 9.8 °C 55 % 7 km/h (12 km/h) 0 mm0 mm 22.6 °C 22.5 °C 20.3 °C 19.4 °C 0 cm 0 min 0 W/m²
01:42 18.8 °C 10.1 °C 57 % 5 km/h (9 km/h) 0 mm0 mm 22.7 °C 22.5 °C 20.3 °C 19.4 °C 0 cm 0 min 0 W/m²
01:36 18.9 °C 10.2 °C 57 % 5 km/h (9 km/h) 0 mm0 mm 22.7 °C 22.5 °C 20.3 °C 19.4 °C 0 cm 0 min 0 W/m²
01:30 18.7 °C 10.3 °C 58 % 6 km/h (9 km/h) 0 mm0 mm 22.8 °C 22.5 °C 20.3 °C 19.4 °C 0 cm 0 min 0 W/m²
01:24 18.3 °C 10.1 °C 59 % 8 km/h (13 km/h) 0 mm0 mm 22.8 °C 22.5 °C 20.3 °C 19.4 °C 0 cm 0 min 0 W/m²
01:18 18.2 °C 10.3 °C 60 % 9 km/h (13 km/h) 0 mm0 mm 22.8 °C 22.5 °C 20.3 °C 19.4 °C 0 cm 0 min 0 W/m²
01:12 18.4 °C 10.2 °C 59 % 9 km/h (14 km/h) 0 mm0 mm 22.9 °C 22.6 °C 20.3 °C 19.4 °C 0 cm 0 min 0 W/m²
01:06 18.5 °C 10.3 °C 59 % 10 km/h (15 km/h) 0 mm0 mm 22.9 °C 22.6 °C 20.3 °C 19.4 °C 0 cm 0 min 0 W/m²
01:00 18.1 °C 10.5 °C 61 % 9 km/h (15 km/h) 0 mm0 mm 22.9 °C 22.6 °C 20.3 °C 19.4 °C 0 cm 0 min 0 W/m²
00:54 18.5 °C 10.8 °C 61 % 8 km/h (15 km/h) 0 mm0 mm 23 °C 22.6 °C 20.3 °C 19.4 °C 0 cm 0 min 0 W/m²
00:48 19.2 °C 10.5 °C 57 % 6 km/h (11 km/h) 0 mm0 mm 23 °C 22.6 °C 20.3 °C 19.4 °C 0 cm 0 min 0 W/m²
00:42 18.8 °C 10.4 °C 58 % 4 km/h (10 km/h) 0 mm0 mm 23 °C 22.6 °C 20.3 °C 19.4 °C 0 cm 0 min 0 W/m²
00:36 18.8 °C 10.4 °C 58 % 6 km/h (10 km/h) 0 mm0 mm 23.1 °C 22.6 °C 20.2 °C 19.4 °C 0 cm 0 min 0 W/m²
00:30 18.9 °C 10.5 °C 58 % 8 km/h (11 km/h) 0 mm0 mm 23.1 °C 22.6 °C 20.2 °C 19.4 °C 0 cm 0 min 0 W/m²
00:24 18.8 °C 10.4 °C 58 % 5 km/h (11 km/h) 0 mm0 mm 23.1 °C 22.6 °C 20.2 °C 19.4 °C 0 cm 0 min 0 W/m²
00:18 19 °C 10.5 °C 58 % 5 km/h (15 km/h) 0 mm0 mm 23.2 °C 22.6 °C 20.2 °C 19.4 °C 0 cm 0 min 0 W/m²
00:12 19.2 °C 10.5 °C 57 % 10 km/h (17 km/h) 0 mm0 mm 23.2 °C 22.6 °C 20.2 °C 19.4 °C 0 cm 0 min 0 W/m²
00:06 19.5 °C 10.5 °C 56 % 11 km/h (17 km/h) 0 mm0 mm 23.3 °C 22.7 °C 20.2 °C 19.4 °C 0 cm 0 min 0 W/m²
00:00 19.4 °C 10.4 °C 56 % 9 km/h (14 km/h) 0 mm0 mm 23.3 °C 22.6 °C 20.2 °C 19.4 °C 0 cm 0 min 0 W/m²

Données via Météo-France

Relevés météo à Embrun

Cette page rassemble les observations de la station de Embrun : température, humidité, vent, précipitations et pression atmosphérique. Les graphiques facilitent le suivi de la journée, tandis que le tableau donne accès aux mesures horaires et infra-horaires disponibles.

Pour replacer ces mesures dans leur contexte, consultez la climatologie de Embrun ainsi que ses normales et records. Retrouvez aussi la carte des observations météo en temps réel.